Flinter Rose — PBUB — position and weather

sailwx.info

Track history (hours):
 
Tides and Currents Weather Stations Pressure Air Temp Water Temp Dewpoint Dewpoint Depression Visibility Wind Speed Wind Dir Waves Ship Positions

Flinter Rose

Last reported at 2017-Aug-17 23:30 UTC. Time now 2017-Aug-17 23:33 UTC.
Position N 36°41' W 009°26'.

Length 101 m; draft 6.4 m.

Type: Cargo ship. MMSI: 246227000.

Date/timePositionNaut miles runAvg speedWind from/ knotsBaromVisibWave heightAir tempDewpointWater temp
2017-Aug-17 23:30N 36°41' W 009°26'610.9
2017-Aug-17 23:00N 36°45' W 009°31'510.7
2017-Aug-17 22:30N 36°50' W 009°34'611.3
2017-Aug-17 21:59N 36°56' W 009°35'510.9
2017-Aug-17 21:30N 37°01' W 009°37'510.5
2017-Aug-17 21:00N 37°06' W 009°38'610.9
2017-Aug-17 20:27N 37°12' W 009°40'1610.6
2017-Aug-17 18:59N 37°27' W 009°44'510.8
2017-Aug-17 18:30N 37°32' W 009°46'510.4
2017-Aug-17 18:00N 37°37' W 009°47'510.7
2017-Aug-17 17:30N 37°42' W 009°49'511.0
2017-Aug-17 17:00N 37°48' W 009°50'511.0
2017-Aug-17 16:30N 37°53' W 009°52'510.9
2017-Aug-17 16:00N 37°58' W 009°53'510.8
2017-Aug-17 15:30N 38°04' W 009°55'510.7
2017-Aug-17 15:00N 38°09' W 009°57'510.6
2017-Aug-17 14:30N 38°14' W 009°58'510.5
2017-Aug-17 14:00N 38°19' W 009°60'510.6
2017-Aug-17 13:30N 38°24' W 010°01'510.8
2017-Aug-17 13:00N 38°29' W 010°03'611.1
2017-Aug-17 12:30N 38°35' W 010°04'510.7
2017-Aug-17 12:00N 38°40' W 010°06'510.5
2017-Aug-17 11:30N 38°45' W 010°06'510.9
2017-Aug-17 11:00N 38°51' W 010°06'511.0
2017-Aug-17 10:30N 38°56' W 010°06'510.6
2017-Aug-17 10:00N 39°01' W 010°06'510.8
2017-Aug-17 09:30N 39°07' W 010°06'510.7
2017-Aug-17 09:00N 39°12' W 010°06'611.0
2017-Aug-17 08:30N 39°18' W 010°06'611.1
2017-Aug-17 08:00N 39°23' W 010°06'510.8
2017-Aug-17 07:30N 39°29' W 010°06'710.9
2017-Aug-17 06:54N 39°35' W 010°06'411.0
2017-Aug-17 06:30N 39°40' W 010°06'  
2017-Aug-14 20:26N 49°03' W 005°23'5 9.4
2017-Aug-14 19:54N 49°06' W 005°17'6710.9
2017-Aug-14 13:47N 49°40' W 003°48'710.6
2017-Aug-14 13:10N 49°43' W 003°40'210.4
2017-Aug-14 12:58N 49°44' W 003°37'510.1
2017-Aug-14 12:30N 49°47' W 003°31'5 9.5
2017-Aug-14 12:00N 49°49' W 003°24'5 9.4
2017-Aug-14 11:28N 49°51' W 003°17'6 9.3
2017-Aug-14 10:48N 49°54' W 003°09'3 9.4
2017-Aug-14 10:29N 49°56' W 003°05'5 9.5
2017-Aug-14 10:00N 49°58' W 002°59'5 9.8
2017-Aug-14 09:30N 49°59' W 002°52'510.3
2017-Aug-14 09:00N 50°01' W 002°44'510.7
2017-Aug-14 08:30N 50°02' W 002°36'711.4
2017-Aug-14 07:55N 50°03' W 002°26'612.2
2017-Aug-14 07:25N 50°05' W 002°16'512.9
2017-Aug-14 07:00N 50°07' W 002°09'713.5
2017-Aug-14 06:30N 50°08' W 001°58'713.8
2017-Aug-14 06:00N 50°10' W 001°48'713.8
2017-Aug-14 05:30N 50°12' W 001°37'713.5
2017-Aug-14 05:00N 50°14' W 001°27'713.0
2017-Aug-14 04:30N 50°17' W 001°18'712.5
2017-Aug-14 03:58N 50°19' W 001°08'911.5
2017-Aug-14 03:12N 50°21' W 000°55'210.5
2017-Aug-14 02:59N 50°22' W 000°52'9 9.4
2017-Aug-14 01:59N 50°25' W 000°37'9 8.8
2017-Aug-14 00:56N 50°27' W 000°23'4 8.7
2017-Aug-14 00:27N 50°28' W 000°17'4 8.7
2017-Aug-13 23:59N 50°29' W 000°11'5 9.1
2017-Aug-13 23:29N 50°31' W 000°04'4 9.5
2017-Aug-13 23:00N 50°32' E 000°03'5 9.8
2017-Aug-13 22:30N 50°33' E 000°10'510.6
2017-Aug-13 22:00N 50°35' E 000°18'611.3
2017-Aug-13 21:30N 50°36' E 000°27'611.7
2017-Aug-13 21:00N 50°39' E 000°35'612.0
2017-Aug-13 20:30N 50°42' E 000°43'612.0
2017-Aug-13 20:00N 50°46' E 000°51'611.7
2017-Aug-13 19:29N 50°49' E 000°59'711.2
2017-Aug-13 18:54N 50°53' E 001°07'610.7
2017-Aug-13 18:20N 50°57' E 001°14'11 9.6
2017-Aug-13 17:14N 51°04' E 001°27'2 8.7
2017-Aug-13 17:00N 51°05' E 001°29'4 8.4
2017-Aug-13 16:30N 51°08' E 001°34'4 8.3
2017-Aug-13 16:00N 51°11' E 001°39'4 8.5
2017-Aug-13 15:30N 51°13' E 001°44'5 9.4
2017-Aug-13 15:00N 51°17' E 001°48'510.2
2017-Aug-13 14:30N 51°22' E 001°52'510.9
2017-Aug-13 14:00N 51°26' E 001°58'611.6
2017-Aug-13 13:29N 51°31' E 002°04'812.1
2017-Aug-13 12:52N 51°36' E 002°12'512.4
2017-Aug-13 12:25N 51°41' E 002°18'22610.3
2017-Aug-12 14:36N 54°53' E 005°36'1 9.8
2017-Aug-12 14:30N 54°54' E 005°36'5 9.9
2017-Aug-12 13:59N 54°58' E 005°40'510.0
2017-Aug-12 13:29N 55°03' E 005°44'510.0
2017-Aug-12 12:59N 55°07' E 005°48'225 9.6
2017-Aug-11 13:34N 58°21' E 009°17'110.5
2017-Aug-11 13:30N 58°22' E 009°17'1610.5
2017-Aug-11 11:58N 58°33' E 009°39'510.8
2017-Aug-11 11:30N 58°38' E 009°41'510.8
2017-Aug-11 11:00N 58°44' E 009°43'511.0
2017-Aug-11 10:31N 58°49' E 009°45'611.1
2017-Aug-11 10:00N 58°54' E 009°46'5 9.8
2017-Aug-11 09:30N 58°59' E 009°47'5 9.8
2017-Aug-11 08:59N 59°03' E 009°41'4 9.2
2017-Aug-11 08:30N 59°07' E 009°37'0 0.3
2017-Aug-11 07:58N 59°07' E 009°37'0 0.0
2017-Aug-11 07:28N 59°07' E 009°37'0 0.0
2017-Aug-11 06:58N 59°07' E 009°37'0 0.0
2017-Aug-11 06:28N 59°07' E 009°37'0 0.0
2017-Aug-11 05:58N 59°07' E 009°37'0 0.0
2017-Aug-11 05:28N 59°07' E 009°37'0 0.0
2017-Aug-11 04:58N 59°07' E 009°37'0 0.0
2017-Aug-11 04:28N 59°07' E 009°37'0 0.0
2017-Aug-11 03:58N 59°07' E 009°37'0 0.0
2017-Aug-11 03:28N 59°07' E 009°37'0 0.0
2017-Aug-11 02:58N 59°07' E 009°37'0 0.0
2017-Aug-11 02:28N 59°07' E 009°37'0 0.0
2017-Aug-11 01:58N 59°07' E 009°37'0 0.0
2017-Aug-11 01:28N 59°07' E 009°37'0 0.0
2017-Aug-11 00:58N 59°07' E 009°37'0 0.0
2017-Aug-11 00:28N 59°07' E 009°37'0 0.0
2017-Aug-10 23:58N 59°07' E 009°37'0 0.0
2017-Aug-10 23:28N 59°07' E 009°37'0 0.0
2017-Aug-10 22:58N 59°07' E 009°37'0 0.0
2017-Aug-10 22:28N 59°07' E 009°37'0 0.3
2017-Aug-10 22:00N 59°07' E 009°37'0 0.9
2017-Aug-10 21:30N 59°07' E 009°37'1 1.3
2017-Aug-10 21:00N 59°07' E 009°38'0 0.5
2017-Aug-10 20:29N 59°06' E 009°38'0 0.1
2017-Aug-10 19:59N 59°06' E 009°38'0 0.0
2017-Aug-10 19:29N 59°06' E 009°38'0 0.0
2017-Aug-10 18:59N 59°06' E 009°38'0 0.0
2017-Aug-10 18:29N 59°06' E 009°38'0 0.0
2017-Aug-10 17:59N 59°06' E 009°38'0 0.0
2017-Aug-10 17:29N 59°06' E 009°38'0 0.0
2017-Aug-10 16:59N 59°06' E 009°38'0 0.0
2017-Aug-10 16:29N 59°06' E 009°38'0 0.0
2017-Aug-10 15:59N 59°06' E 009°38'0 0.0
2017-Aug-10 15:29N 59°06' E 009°38'0 0.0
2017-Aug-10 14:59N 59°06' E 009°38'0 0.0
2017-Aug-10 14:29N 59°06' E 009°38'0 0.0
2017-Aug-10 13:56N 59°06' E 009°38'0 0.0
2017-Aug-10 13:29N 59°06' E 009°38'0 0.0
2017-Aug-10 12:59N 59°06' E 009°38'0 0.0
2017-Aug-10 12:29N 59°06' E 009°38'0 0.0
2017-Aug-10 11:59N 59°06' E 009°38'0 0.0
2017-Aug-10 11:29N 59°06' E 009°38'0 0.0
2017-Aug-10 10:59N 59°06' E 009°38'0 0.0
2017-Aug-10 10:29N 59°06' E 009°38'0 0.0
2017-Aug-10 09:59N 59°06' E 009°38'0 0.0
2017-Aug-10 09:29N 59°06' E 009°38'0 0.0
2017-Aug-10 08:59N 59°06' E 009°38'0 0.0
2017-Aug-10 08:29N 59°06' E 009°38'0 0.0
2017-Aug-10 07:59N 59°06' E 009°38'0 0.0
2017-Aug-10 07:29N 59°06' E 009°38'0 0.0
2017-Aug-10 06:59N 59°06' E 009°38'0 0.0
2017-Aug-10 06:29N 59°06' E 009°38'0 0.0
2017-Aug-10 05:59N 59°06' E 009°38'0 0.0
2017-Aug-10 05:29N 59°06' E 009°38'0 0.0
2017-Aug-10 04:59N 59°06' E 009°38'0 0.0
2017-Aug-10 04:29N 59°06' E 009°38'0 0.0
2017-Aug-10 03:59N 59°06' E 009°38'0 0.0
2017-Aug-10 03:29N 59°06' E 009°38'0 0.0
2017-Aug-10 02:59N 59°06' E 009°38'0 0.0
2017-Aug-10 02:29N 59°06' E 009°38'0 0.0
2017-Aug-10 01:59N 59°06' E 009°38'0 0.0
2017-Aug-10 01:29N 59°06' E 009°38'0 0.0
2017-Aug-10 00:59N 59°06' E 009°38'0 0.0
2017-Aug-10 00:29N 59°06' E 009°38'0 0.1
2017-Aug-09 23:59N 59°06' E 009°38'0 0.0
2017-Aug-09 23:29N 59°06' E 009°38'0 0.0
2017-Aug-09 22:59N 59°06' E 009°38'0 0.0
2017-Aug-09 22:29N 59°06' E 009°38'0 0.0
2017-Aug-09 21:59N 59°06' E 009°38'0 0.0
2017-Aug-09 21:29N 59°06' E 009°38'0 0.0
2017-Aug-09 20:59N 59°06' E 009°38'0 0.0
2017-Aug-09 20:29N 59°06' E 009°38'0 0.1
2017-Aug-09 19:59N 59°06' E 009°38'0 0.0
2017-Aug-09 19:29N 59°06' E 009°38'0 0.0
2017-Aug-09 18:59N 59°06' E 009°38'0 0.1
2017-Aug-09 18:29N 59°06' E 009°38'0 0.0
2017-Aug-09 17:59N 59°06' E 009°38'0 0.0
2017-Aug-09 17:29N 59°06' E 009°38'0 0.0
2017-Aug-09 16:59N 59°06' E 009°38'0 0.1
2017-Aug-09 16:29N 59°06' E 009°38'0 0.0
2017-Aug-09 15:59N 59°06' E 009°38'0 0.0
2017-Aug-09 15:29N 59°06' E 009°38'0 0.0
2017-Aug-09 14:59N 59°06' E 009°38'0 0.0
2017-Aug-09 14:29N 59°06' E 009°38'0 0.0
2017-Aug-09 13:59N 59°06' E 009°38'0 0.0
2017-Aug-09 13:29N 59°06' E 009°38'0 0.0
2017-Aug-09 12:59N 59°06' E 009°38'0 0.0
2017-Aug-09 12:29N 59°06' E 009°38'0 0.0
2017-Aug-09 11:59N 59°06' E 009°38'0 0.0
2017-Aug-09 11:29N 59°06' E 009°38'0 0.0
2017-Aug-09 10:59N 59°06' E 009°38'0 0.0
2017-Aug-09 10:29N 59°06' E 009°38'0 0.0
2017-Aug-09 09:59N 59°06' E 009°38'0 0.0
2017-Aug-09 09:29N 59°06' E 009°38'0 0.0
2017-Aug-09 08:59N 59°06' E 009°38'0 0.0
2017-Aug-09 08:29N 59°06' E 009°38'0 0.0
2017-Aug-09 07:59N 59°06' E 009°38'0 0.0
2017-Aug-09 07:29N 59°06' E 009°38'0 0.0
2017-Aug-09 06:59N 59°06' E 009°38'0 0.0
2017-Aug-09 06:29N 59°06' E 009°38'0 0.0
2017-Aug-09 05:59N 59°06' E 009°38'0 0.0
2017-Aug-09 05:29N 59°06' E 009°38'0 0.0
2017-Aug-09 04:59N 59°06' E 009°38'0 0.0
2017-Aug-09 04:29N 59°06' E 009°38'0 0.0
2017-Aug-09 03:59N 59°06' E 009°38'0 0.1
2017-Aug-09 03:29N 59°06' E 009°38'0 0.1
2017-Aug-09 02:59N 59°06' E 009°38'0 0.0
2017-Aug-09 02:29N 59°06' E 009°38'0 0.0
2017-Aug-09 01:59N 59°06' E 009°38'0 0.0
2017-Aug-09 01:29N 59°06' E 009°38'0 0.1
2017-Aug-09 00:59N 59°06' E 009°38'0 0.0
2017-Aug-09 00:29N 59°06' E 009°38'0 0.0
2017-Aug-08 23:59N 59°06' E 009°38'0 0.0
2017-Aug-08 23:29N 59°06' E 009°38'0 0.0
2017-Aug-08 22:59N 59°06' E 009°38'0 0.0
2017-Aug-08 22:29N 59°06' E 009°38'0 0.0
2017-Aug-08 21:59N 59°06' E 009°38'0 0.0
2017-Aug-08 21:29N 59°06' E 009°38'0 0.0
2017-Aug-08 20:59N 59°06' E 009°38'0 0.0
2017-Aug-08 20:29N 59°06' E 009°38'0 0.0
2017-Aug-08 19:59N 59°06' E 009°38'0 0.0
2017-Aug-08 19:29N 59°06' E 009°38'0 0.0
2017-Aug-08 18:59N 59°06' E 009°38'0 0.0
2017-Aug-08 18:29N 59°06' E 009°38'0 0.0
2017-Aug-08 17:59N 59°06' E 009°38'0 0.0
2017-Aug-08 17:29N 59°06' E 009°38'0 0.0
2017-Aug-08 16:59N 59°06' E 009°38'0 0.0
2017-Aug-08 16:29N 59°06' E 009°38'0 0.0
2017-Aug-08 15:59N 59°06' E 009°38'0 0.0
2017-Aug-08 15:29N 59°06' E 009°38'0 0.0
2017-Aug-08 14:59N 59°06' E 009°38'0 0.0
2017-Aug-08 14:29N 59°06' E 009°38'0 0.0
2017-Aug-08 13:59N 59°06' E 009°38'0 0.0
2017-Aug-08 13:29N 59°06' E 009°38'0 0.0
2017-Aug-08 12:59N 59°06' E 009°38'0 0.0
2017-Aug-08 12:29N 59°06' E 009°38'0 0.0
2017-Aug-08 11:59N 59°06' E 009°38'0 0.0
2017-Aug-08 11:29N 59°06' E 009°38'0 0.2
2017-Aug-08 10:59N 59°06' E 009°38'2 3.2
2017-Aug-08 10:30N 59°05' E 009°38'4 8.2
2017-Aug-08 10:00N 59°02' E 009°44'5 9.7
2017-Aug-08 09:30N 58°57' E 009°47'5 9.6
2017-Aug-08 09:00N 58°53' E 009°47'510.7
2017-Aug-08 08:29N 58°47' E 009°46'510.6
2017-Aug-08 08:00N 58°42' E 009°44'611.0
2017-Aug-08 07:30N 58°37' E 009°41'6711.1
2017-Aug-08 01:27N 57°47' E 008°15'612.3
2017-Aug-08 00:59N 57°45' E 008°05'1711.5
2017-Aug-07 23:31N 57°42' E 007°34'  
Track history (hours):
 
Tides and Currents Weather Stations Pressure Air Temp Water Temp Dewpoint Dewpoint Depression Visibility Wind Speed Wind Dir Waves Ship Positions

Flinter Rose

Last reported at 2017-Aug-17 23:30 UTC. Time now 2017-Aug-17 23:33 UTC.
Position N 36°41' W 009°26'.

Length 101 m; draft 6.4 m.

Type: Cargo ship. MMSI: 246227000.

Date/timePositionNaut miles runAvg speedWind from/ knotsBaromVisibWave heightAir tempDewpointWater temp
2017-Aug-17 23:30N 36°41' W 009°26'610.9
2017-Aug-17 23:00N 36°45' W 009°31'510.7
2017-Aug-17 22:30N 36°50' W 009°34'611.3
2017-Aug-17 21:59N 36°56' W 009°35'510.9
2017-Aug-17 21:30N 37°01' W 009°37'510.5
2017-Aug-17 21:00N 37°06' W 009°38'610.9
2017-Aug-17 20:27N 37°12' W 009°40'1610.6
2017-Aug-17 18:59N 37°27' W 009°44'510.8
2017-Aug-17 18:30N 37°32' W 009°46'510.4
2017-Aug-17 18:00N 37°37' W 009°47'510.7
2017-Aug-17 17:30N 37°42' W 009°49'511.0
2017-Aug-17 17:00N 37°48' W 009°50'511.0
2017-Aug-17 16:30N 37°53' W 009°52'510.9
2017-Aug-17 16:00N 37°58' W 009°53'510.8
2017-Aug-17 15:30N 38°04' W 009°55'510.7
2017-Aug-17 15:00N 38°09' W 009°57'510.6
2017-Aug-17 14:30N 38°14' W 009°58'510.5
2017-Aug-17 14:00N 38°19' W 009°60'510.6
2017-Aug-17 13:30N 38°24' W 010°01'510.8
2017-Aug-17 13:00N 38°29' W 010°03'611.1
2017-Aug-17 12:30N 38°35' W 010°04'510.7
2017-Aug-17 12:00N 38°40' W 010°06'510.5
2017-Aug-17 11:30N 38°45' W 010°06'510.9
2017-Aug-17 11:00N 38°51' W 010°06'511.0
2017-Aug-17 10:30N 38°56' W 010°06'510.6
2017-Aug-17 10:00N 39°01' W 010°06'510.8
2017-Aug-17 09:30N 39°07' W 010°06'510.7
2017-Aug-17 09:00N 39°12' W 010°06'611.0
2017-Aug-17 08:30N 39°18' W 010°06'611.1
2017-Aug-17 08:00N 39°23' W 010°06'510.8
2017-Aug-17 07:30N 39°29' W 010°06'710.9
2017-Aug-17 06:54N 39°35' W 010°06'411.0
2017-Aug-17 06:30N 39°40' W 010°06'  
2017-Aug-14 20:26N 49°03' W 005°23'5 9.4
2017-Aug-14 19:54N 49°06' W 005°17'6710.9
2017-Aug-14 13:47N 49°40' W 003°48'710.6
2017-Aug-14 13:10N 49°43' W 003°40'210.4
2017-Aug-14 12:58N 49°44' W 003°37'510.1
2017-Aug-14 12:30N 49°47' W 003°31'5 9.5
2017-Aug-14 12:00N 49°49' W 003°24'5 9.4
2017-Aug-14 11:28N 49°51' W 003°17'6 9.3
2017-Aug-14 10:48N 49°54' W 003°09'3 9.4
2017-Aug-14 10:29N 49°56' W 003°05'5 9.5
2017-Aug-14 10:00N 49°58' W 002°59'5 9.8
2017-Aug-14 09:30N 49°59' W 002°52'510.3
2017-Aug-14 09:00N 50°01' W 002°44'510.7
2017-Aug-14 08:30N 50°02' W 002°36'711.4
2017-Aug-14 07:55N 50°03' W 002°26'612.2
2017-Aug-14 07:25N 50°05' W 002°16'512.9
2017-Aug-14 07:00N 50°07' W 002°09'713.5
2017-Aug-14 06:30N 50°08' W 001°58'713.8
2017-Aug-14 06:00N 50°10' W 001°48'713.8
2017-Aug-14 05:30N 50°12' W 001°37'713.5
2017-Aug-14 05:00N 50°14' W 001°27'713.0
2017-Aug-14 04:30N 50°17' W 001°18'712.5
2017-Aug-14 03:58N 50°19' W 001°08'911.5
2017-Aug-14 03:12N 50°21' W 000°55'210.5
2017-Aug-14 02:59N 50°22' W 000°52'9 9.4
2017-Aug-14 01:59N 50°25' W 000°37'9 8.8
2017-Aug-14 00:56N 50°27' W 000°23'4 8.7
2017-Aug-14 00:27N 50°28' W 000°17'4 8.7
2017-Aug-13 23:59N 50°29' W 000°11'5 9.1
2017-Aug-13 23:29N 50°31' W 000°04'4 9.5
2017-Aug-13 23:00N 50°32' E 000°03'5 9.8
2017-Aug-13 22:30N 50°33' E 000°10'510.6
2017-Aug-13 22:00N 50°35' E 000°18'611.3
2017-Aug-13 21:30N 50°36' E 000°27'611.7
2017-Aug-13 21:00N 50°39' E 000°35'612.0
2017-Aug-13 20:30N 50°42' E 000°43'612.0
2017-Aug-13 20:00N 50°46' E 000°51'611.7
2017-Aug-13 19:29N 50°49' E 000°59'711.2
2017-Aug-13 18:54N 50°53' E 001°07'610.7
2017-Aug-13 18:20N 50°57' E 001°14'11 9.6
2017-Aug-13 17:14N 51°04' E 001°27'2 8.7
2017-Aug-13 17:00N 51°05' E 001°29'4 8.4
2017-Aug-13 16:30N 51°08' E 001°34'4 8.3
2017-Aug-13 16:00N 51°11' E 001°39'4 8.5
2017-Aug-13 15:30N 51°13' E 001°44'5 9.4
2017-Aug-13 15:00N 51°17' E 001°48'510.2
2017-Aug-13 14:30N 51°22' E 001°52'510.9
2017-Aug-13 14:00N 51°26' E 001°58'611.6
2017-Aug-13 13:29N 51°31' E 002°04'812.1
2017-Aug-13 12:52N 51°36' E 002°12'512.4
2017-Aug-13 12:25N 51°41' E 002°18'22610.3
2017-Aug-12 14:36N 54°53' E 005°36'1 9.8
2017-Aug-12 14:30N 54°54' E 005°36'5 9.9
2017-Aug-12 13:59N 54°58' E 005°40'510.0
2017-Aug-12 13:29N 55°03' E 005°44'510.0
2017-Aug-12 12:59N 55°07' E 005°48'225 9.6
2017-Aug-11 13:34N 58°21' E 009°17'110.5
2017-Aug-11 13:30N 58°22' E 009°17'1610.5
2017-Aug-11 11:58N 58°33' E 009°39'510.8
2017-Aug-11 11:30N 58°38' E 009°41'510.8
2017-Aug-11 11:00N 58°44' E 009°43'511.0
2017-Aug-11 10:31N 58°49' E 009°45'611.1
2017-Aug-11 10:00N 58°54' E 009°46'5 9.8
2017-Aug-11 09:30N 58°59' E 009°47'5 9.8
2017-Aug-11 08:59N 59°03' E 009°41'4 9.2
2017-Aug-11 08:30N 59°07' E 009°37'0 0.3
2017-Aug-11 07:58N 59°07' E 009°37'0 0.0
2017-Aug-11 07:28N 59°07' E 009°37'0 0.0
2017-Aug-11 06:58N 59°07' E 009°37'0 0.0
2017-Aug-11 06:28N 59°07' E 009°37'0 0.0
2017-Aug-11 05:58N 59°07' E 009°37'0 0.0
2017-Aug-11 05:28N 59°07' E 009°37'0 0.0
2017-Aug-11 04:58N 59°07' E 009°37'0 0.0
2017-Aug-11 04:28N 59°07' E 009°37'0 0.0
2017-Aug-11 03:58N 59°07' E 009°37'0 0.0
2017-Aug-11 03:28N 59°07' E 009°37'0 0.0
2017-Aug-11 02:58N 59°07' E 009°37'0 0.0
2017-Aug-11 02:28N 59°07' E 009°37'0 0.0
2017-Aug-11 01:58N 59°07' E 009°37'0 0.0
2017-Aug-11 01:28N 59°07' E 009°37'0 0.0
2017-Aug-11 00:58N 59°07' E 009°37'0 0.0
2017-Aug-11 00:28N 59°07' E 009°37'0 0.0
2017-Aug-10 23:58N 59°07' E 009°37'0 0.0
2017-Aug-10 23:28N 59°07' E 009°37'0 0.0
2017-Aug-10 22:58N 59°07' E 009°37'0 0.0
2017-Aug-10 22:28N 59°07' E 009°37'0 0.3
2017-Aug-10 22:00N 59°07' E 009°37'0 0.9
2017-Aug-10 21:30N 59°07' E 009°37'1 1.3
2017-Aug-10 21:00N 59°07' E 009°38'0 0.5
2017-Aug-10 20:29N 59°06' E 009°38'0 0.1
2017-Aug-10 19:59N 59°06' E 009°38'0 0.0
2017-Aug-10 19:29N 59°06' E 009°38'0 0.0
2017-Aug-10 18:59N 59°06' E 009°38'0 0.0
2017-Aug-10 18:29N 59°06' E 009°38'0 0.0
2017-Aug-10 17:59N 59°06' E 009°38'0 0.0
2017-Aug-10 17:29N 59°06' E 009°38'0 0.0
2017-Aug-10 16:59N 59°06' E 009°38'0 0.0
2017-Aug-10 16:29N 59°06' E 009°38'0 0.0
2017-Aug-10 15:59N 59°06' E 009°38'0 0.0
2017-Aug-10 15:29N 59°06' E 009°38'0 0.0
2017-Aug-10 14:59N 59°06' E 009°38'0 0.0
2017-Aug-10 14:29N 59°06' E 009°38'0 0.0
2017-Aug-10 13:56N 59°06' E 009°38'0 0.0
2017-Aug-10 13:29N 59°06' E 009°38'0 0.0
2017-Aug-10 12:59N 59°06' E 009°38'0 0.0
2017-Aug-10 12:29N 59°06' E 009°38'0 0.0
2017-Aug-10 11:59N 59°06' E 009°38'0 0.0
2017-Aug-10 11:29N 59°06' E 009°38'0 0.0
2017-Aug-10 10:59N 59°06' E 009°38'0 0.0
2017-Aug-10 10:29N 59°06' E 009°38'0 0.0
2017-Aug-10 09:59N 59°06' E 009°38'0 0.0
2017-Aug-10 09:29N 59°06' E 009°38'0 0.0
2017-Aug-10 08:59N 59°06' E 009°38'0 0.0
2017-Aug-10 08:29N 59°06' E 009°38'0 0.0
2017-Aug-10 07:59N 59°06' E 009°38'0 0.0
2017-Aug-10 07:29N 59°06' E 009°38'0 0.0
2017-Aug-10 06:59N 59°06' E 009°38'0 0.0
2017-Aug-10 06:29N 59°06' E 009°38'0 0.0
2017-Aug-10 05:59N 59°06' E 009°38'0 0.0
2017-Aug-10 05:29N 59°06' E 009°38'0 0.0
2017-Aug-10 04:59N 59°06' E 009°38'0 0.0
2017-Aug-10 04:29N 59°06' E 009°38'0 0.0
2017-Aug-10 03:59N 59°06' E 009°38'0 0.0
2017-Aug-10 03:29N 59°06' E 009°38'0 0.0
2017-Aug-10 02:59N 59°06' E 009°38'0 0.0
2017-Aug-10 02:29N 59°06' E 009°38'0 0.0
2017-Aug-10 01:59N 59°06' E 009°38'0 0.0
2017-Aug-10 01:29N 59°06' E 009°38'0 0.0
2017-Aug-10 00:59N 59°06' E 009°38'0 0.0
2017-Aug-10 00:29N 59°06' E 009°38'0 0.1
2017-Aug-09 23:59N 59°06' E 009°38'0 0.0
2017-Aug-09 23:29N 59°06' E 009°38'0 0.0
2017-Aug-09 22:59N 59°06' E 009°38'0 0.0
2017-Aug-09 22:29N 59°06' E 009°38'0 0.0
2017-Aug-09 21:59N 59°06' E 009°38'0 0.0
2017-Aug-09 21:29N 59°06' E 009°38'0 0.0
2017-Aug-09 20:59N 59°06' E 009°38'0 0.0
2017-Aug-09 20:29N 59°06' E 009°38'0 0.1
2017-Aug-09 19:59N 59°06' E 009°38'0 0.0
2017-Aug-09 19:29N 59°06' E 009°38'0 0.0
2017-Aug-09 18:59N 59°06' E 009°38'0 0.1
2017-Aug-09 18:29N 59°06' E 009°38'0 0.0
2017-Aug-09 17:59N 59°06' E 009°38'0 0.0
2017-Aug-09 17:29N 59°06' E 009°38'0 0.0
2017-Aug-09 16:59N 59°06' E 009°38'0 0.1
2017-Aug-09 16:29N 59°06' E 009°38'0 0.0
2017-Aug-09 15:59N 59°06' E 009°38'0 0.0
2017-Aug-09 15:29N 59°06' E 009°38'0 0.0
2017-Aug-09 14:59N 59°06' E 009°38'0 0.0
2017-Aug-09 14:29N 59°06' E 009°38'0 0.0
2017-Aug-09 13:59N 59°06' E 009°38'0 0.0
2017-Aug-09 13:29N 59°06' E 009°38'0 0.0
2017-Aug-09 12:59N 59°06' E 009°38'0 0.0
2017-Aug-09 12:29N 59°06' E 009°38'0 0.0
2017-Aug-09 11:59N 59°06' E 009°38'0 0.0
2017-Aug-09 11:29N 59°06' E 009°38'0 0.0
2017-Aug-09 10:59N 59°06' E 009°38'0 0.0
2017-Aug-09 10:29N 59°06' E 009°38'0 0.0
2017-Aug-09 09:59N 59°06' E 009°38'0 0.0
2017-Aug-09 09:29N 59°06' E 009°38'0 0.0
2017-Aug-09 08:59N 59°06' E 009°38'0 0.0
2017-Aug-09 08:29N 59°06' E 009°38'0 0.0
2017-Aug-09 07:59N 59°06' E 009°38'0 0.0
2017-Aug-09 07:29N 59°06' E 009°38'0 0.0
2017-Aug-09 06:59N 59°06' E 009°38'0 0.0
2017-Aug-09 06:29N 59°06' E 009°38'0 0.0
2017-Aug-09 05:59N 59°06' E 009°38'0 0.0
2017-Aug-09 05:29N 59°06' E 009°38'0 0.0
2017-Aug-09 04:59N 59°06' E 009°38'0 0.0
2017-Aug-09 04:29N 59°06' E 009°38'0 0.0
2017-Aug-09 03:59N 59°06' E 009°38'0 0.1
2017-Aug-09 03:29N 59°06' E 009°38'0 0.1
2017-Aug-09 02:59N 59°06' E 009°38'0 0.0
2017-Aug-09 02:29N 59°06' E 009°38'0 0.0
2017-Aug-09 01:59N 59°06' E 009°38'0 0.0
2017-Aug-09 01:29N 59°06' E 009°38'0 0.1
2017-Aug-09 00:59N 59°06' E 009°38'0 0.0
2017-Aug-09 00:29N 59°06' E 009°38'0 0.0
2017-Aug-08 23:59N 59°06' E 009°38'0 0.0
2017-Aug-08 23:29N 59°06' E 009°38'0 0.0
2017-Aug-08 22:59N 59°06' E 009°38'0 0.0
2017-Aug-08 22:29N 59°06' E 009°38'0 0.0
2017-Aug-08 21:59N 59°06' E 009°38'0 0.0
2017-Aug-08 21:29N 59°06' E 009°38'0 0.0
2017-Aug-08 20:59N 59°06' E 009°38'0 0.0
2017-Aug-08 20:29N 59°06' E 009°38'0 0.0
2017-Aug-08 19:59N 59°06' E 009°38'0 0.0
2017-Aug-08 19:29N 59°06' E 009°38'0 0.0
2017-Aug-08 18:59N 59°06' E 009°38'0 0.0
2017-Aug-08 18:29N 59°06' E 009°38'0 0.0
2017-Aug-08 17:59N 59°06' E 009°38'0 0.0
2017-Aug-08 17:29N 59°06' E 009°38'0 0.0
2017-Aug-08 16:59N 59°06' E 009°38'0 0.0
2017-Aug-08 16:29N 59°06' E 009°38'0 0.0
2017-Aug-08 15:59N 59°06' E 009°38'0 0.0
2017-Aug-08 15:29N 59°06' E 009°38'0 0.0
2017-Aug-08 14:59N 59°06' E 009°38'0 0.0
2017-Aug-08 14:29N 59°06' E 009°38'0 0.0
2017-Aug-08 13:59N 59°06' E 009°38'0 0.0
2017-Aug-08 13:29N 59°06' E 009°38'0 0.0
2017-Aug-08 12:59N 59°06' E 009°38'0 0.0
2017-Aug-08 12:29N 59°06' E 009°38'0 0.0
2017-Aug-08 11:59N 59°06' E 009°38'0 0.0
2017-Aug-08 11:29N 59°06' E 009°38'0 0.2
2017-Aug-08 10:59N 59°06' E 009°38'2 3.2
2017-Aug-08 10:30N 59°05' E 009°38'4 8.2
2017-Aug-08 10:00N 59°02' E 009°44'5 9.7
2017-Aug-08 09:30N 58°57' E 009°47'5 9.6
2017-Aug-08 09:00N 58°53' E 009°47'510.7
2017-Aug-08 08:29N 58°47' E 009°46'510.6
2017-Aug-08 08:00N 58°42' E 009°44'611.0
2017-Aug-08 07:30N 58°37' E 009°41'6711.1
2017-Aug-08 01:27N 57°47' E 008°15'612.3
2017-Aug-08 00:59N 57°45' E 008°05'1711.5
2017-Aug-07 23:31N 57°42' E 007°34'  

Dump ship's entire track history